Time;durP1;ratioP1;P1;durP2;ratioP2;P2;SDS_P1;SDS_P2;PMS_P1;PMS_P2;Temp;Humidity;BMP_temperature;BMP_pressure;BME280_temperature;BME280_humidity;BME280_pressure;Samples;Min_cycle;Max_cycle;Signal;HPM_P1;HPM_P2
2022/01/03 00:00:59;;;;;;;9.93;0.88;;;;;;;10.81;83.06;100915.66;5050250;28;20040;-72
2022/01/03 00:03:26;;;;;;;6.80;0.85;;;;;;;10.89;83.03;100923.78;5071839;28;20123;-73
2022/01/03 00:05:52;;;;;;;10.93;1.42;;;;;;;10.91;82.61;100922.72;5065613;28;20052;-71
2022/01/03 00:08:21;;;;;;;4.40;0.75;;;;;;;10.86;83.21;100924.84;5060215;28;20138;-73
2022/01/03 00:10:47;;;;;;;4.57;0.70;;;;;;;10.95;82.82;100908.38;5072345;28;20036;-73
2022/01/03 00:13:14;;;;;;;3.88;0.85;;;;;;;10.94;83.10;100921.66;5080042;28;20044;-71
2022/01/03 00:15:41;;;;;;;7.40;1.02;;;;;;;10.90;83.87;100926.31;5074572;28;20040;-73
2022/01/03 00:18:08;;;;;;;17.83;1.73;;;;;;;10.92;83.30;100918.28;5073497;28;20044;-72
2022/01/03 00:20:38;;;;;;;13.48;1.60;;;;;;;10.90;82.79;100928.94;5074489;28;20044;-72
2022/01/03 00:23:07;;;;;;;13.80;1.50;;;;;;;10.93;82.58;100925.22;5041249;28;20172;-73
2022/01/03 00:25:37;;;;;;;5.75;1.13;;;;;;;10.94;83.71;100913.75;5076874;28;20047;-72
2022/01/03 00:28:12;;;;;;;5.07;1.15;;;;;;;10.89;83.16;100923.78;5053477;28;20036;-72
2022/01/03 00:30:39;;;;;;;4.20;0.50;;;;;;;10.97;83.42;100929.28;5064942;28;20039;-71
2022/01/03 00:33:07;;;;;;;5.78;0.77;;;;;;;10.89;83.19;100929.03;5068168;28;20394;-72
2022/01/03 00:35:36;;;;;;;2.80;0.75;;;;;;;10.81;83.55;100936.69;5066795;28;20063;-72
2022/01/03 00:38:03;;;;;;;10.75;1.52;;;;;;;10.73;83.89;100925.91;5063875;28;20070;-72
2022/01/03 00:40:30;;;;;;;12.70;1.58;;;;;;;10.73;83.66;100933.78;5067483;28;20056;-73
2022/01/03 00:42:57;;;;;;;5.70;0.65;;;;;;;10.61;84.81;100932.94;5068075;28;20036;-71
2022/01/03 00:45:23;;;;;;;10.43;1.92;;;;;;;10.62;84.78;100937.25;5048245;28;20067;-72
2022/01/03 00:47:53;;;;;;;6.22;0.98;;;;;;;10.65;85.37;100937.03;5067811;28;20040;-73
2022/01/03 00:50:22;;;;;;;7.47;1.70;;;;;;;10.74;85.49;100945.97;5075509;28;20036;-72
2022/01/03 00:52:52;;;;;;;6.07;1.38;;;;;;;10.71;85.30;100952.31;5079404;28;20048;-75
2022/01/03 00:55:20;;;;;;;4.68;0.57;;;;;;;10.70;84.96;100949.81;5083353;28;20035;-75
2022/01/03 00:57:59;;;;;;;8.13;1.20;;;;;;;10.79;84.61;100947.31;5075792;28;20498;-71
2022/01/03 01:00:27;;;;;;;7.38;1.85;;;;;;;10.75;84.31;100945.84;5048420;28;20048;-72
2022/01/03 01:02:57;;;;;;;12.70;1.45;;;;;;;10.84;84.35;100962.72;5073042;28;20050;-74
2022/01/03 01:05:24;;;;;;;4.80;1.23;;;;;;;10.83;83.85;100951.41;5052739;28;20067;-73
2022/01/03 01:07:56;;;;;;;17.88;2.10;;;;;;;10.78;84.90;100960.56;5072796;28;20048;-73
2022/01/03 01:10:23;;;;;;;15.88;1.25;;;;;;;10.79;83.71;100949.94;5067900;28;20136;-73
2022/01/03 01:12:50;;;;;;;9.93;1.60;;;;;;;10.85;83.42;100948.63;5069017;28;20052;-73
2022/01/03 01:15:16;;;;;;;4.03;0.90;;;;;;;10.83;82.59;100956.66;5050883;28;20156;-72
2022/01/03 01:17:43;;;;;;;7.80;1.17;;;;;;;10.64;83.97;100966.03;5070463;28;20130;-75
2022/01/03 01:20:12;;;;;;;8.82;1.05;;;;;;;10.66;83.89;100964.13;5075745;28;20035;-72
2022/01/03 01:22:38;;;;;;;10.65;1.70;;;;;;;10.50;84.04;100967.09;5054878;28;20040;-72
2022/01/03 01:27:56;;;;;;;6.18;0.93;;;;;;;10.38;84.11;100970.63;5068047;28;20096;-73
2022/01/03 01:30:24;;;;;;;10.30;1.20;;;;;;;10.40;85.35;100971.34;5069601;28;20032;-73
2022/01/03 01:32:53;;;;;;;6.97;1.98;;;;;;;10.48;84.10;100976.00;5048354;28;20051;-73
2022/01/03 01:35:23;;;;;;;2.95;0.85;;;;;;;10.43;84.21;100978.97;5068982;28;20044;-72
2022/01/03 01:37:54;;;;;;;8.70;1.48;;;;;;;10.27;84.91;100974.16;5070353;28;20075;-74
2022/01/03 01:40:23;;;;;;;6.55;1.23;;;;;;;10.28;85.77;100983.69;5075652;28;20119;-71
2022/01/03 01:42:50;;;;;;;4.80;0.77;;;;;;;10.29;85.42;100970.47;5079429;28;20087;-71
2022/01/03 01:45:19;;;;;;;14.13;1.88;;;;;;;10.30;84.90;100979.19;5081906;28;20125;-72
2022/01/03 01:47:48;;;;;;;9.65;1.27;;;;;;;10.19;85.44;100972.09;5066731;28;20043;-73
2022/01/03 01:50:15;;;;;;;6.57;0.77;;;;;;;10.17;85.89;100997.63;5066681;28;20044;-73
2022/01/03 01:52:45;;;;;;;2.83;0.90;;;;;;;10.31;85.68;100978.22;5071874;28;20082;-74
2022/01/03 01:55:13;;;;;;;15.40;1.17;;;;;;;10.35;84.57;100977.91;5074940;28;20055;-72
2022/01/03 01:57:51;;;;;;;9.52;0.63;;;;;;;10.33;85.13;100979.78;5073653;28;20043;-72
2022/01/03 02:00:18;;;;;;;5.70;1.58;;;;;;;10.29;85.32;100980.13;5068014;28;20028;-72
2022/01/03 02:02:47;;;;;;;8.70;1.85;;;;;;;10.42;84.57;100982.56;5072912;28;20036;-72
2022/01/03 02:05:19;;;;;;;9.25;2.28;;;;;;;10.47;84.97;100984.84;5069099;28;20117;-73
2022/01/03 02:07:55;;;;;;;11.30;1.30;;;;;;;10.39;84.88;100988.06;5074576;28;20044;-72
2022/01/03 02:10:25;;;;;;;3.67;1.05;;;;;;;10.41;84.64;100995.81;5075012;28;20128;-73
2022/01/03 02:12:53;;;;;;;10.20;1.55;;;;;;;10.41;84.02;100983.53;5076473;28;20110;-73
2022/01/03 02:15:20;;;;;;;15.98;1.95;;;;;;;10.41;84.34;100987.94;5044623;28;20064;-73
2022/01/03 02:17:48;;;;;;;13.65;1.50;;;;;;;10.52;82.72;100999.31;5067209;28;20064;-72
2022/01/03 02:20:20;;;;;;;7.47;1.60;;;;;;;10.57;82.91;100999.81;5063722;28;20078;-72
2022/01/03 02:22:47;;;;;;;12.05;0.93;;;;;;;10.46;83.64;100997.16;5067052;28;20051;-72
2022/01/03 02:25:15;;;;;;;4.97;1.27;;;;;;;10.37;84.44;100997.00;5067975;28;20131;-72
2022/01/03 02:27:43;;;;;;;6.25;1.27;;;;;;;10.33;84.25;100992.91;5070035;28;20036;-72
2022/01/03 02:30:12;;;;;;;9.68;1.30;;;;;;;10.27;84.64;100993.38;5066903;28;20092;-72
2022/01/03 02:32:39;;;;;;;18.90;1.98;;;;;;;10.20;84.15;100999.19;5070242;28;20055;-75
2022/01/03 02:35:07;;;;;;;3.20;0.93;;;;;;;10.17;85.12;101002.88;5068217;28;20039;-73
2022/01/03 02:37:36;;;;;;;14.85;2.45;;;;;;;10.13;84.28;100995.34;5069348;28;20055;-72
2022/01/03 02:40:02;;;;;;;4.82;1.05;;;;;;;10.11;84.25;100995.47;5066998;28;20059;-72
2022/01/03 02:42:30;;;;;;;6.65;1.77;;;;;;;10.10;84.33;100993.78;5055454;28;20113;-73
2022/01/03 02:45:00;;;;;;;14.18;1.58;;;;;;;10.06;85.23;100994.13;5066576;28;20758;-73
2022/01/03 02:47:28;;;;;;;1.45;0.52;;;;;;;10.11;84.27;100989.34;5067875;28;20139;-72
2022/01/03 02:49:55;;;;;;;11.07;1.58;;;;;;;10.03;84.35;100991.69;5067438;28;20044;-71
2022/01/03 02:52:23;;;;;;;10.00;0.95;;;;;;;9.98;84.97;100994.66;5046692;28;20457;-72
2022/01/03 02:54:51;;;;;;;13.38;2.05;;;;;;;10.07;83.88;100994.00;5067698;28;20040;-71
2022/01/03 02:57:22;;;;;;;4.85;0.90;;;;;;;9.97;84.41;100989.50;5049342;28;20036;-72
2022/01/03 02:59:54;;;;;;;13.45;2.22;;;;;;;9.81;85.76;100989.75;5073279;28;20067;-72
2022/01/03 03:02:22;;;;;;;3.40;0.70;;;;;;;9.78;84.89;100994.38;5068187;28;20064;-72
2022/01/03 03:04:53;;;;;;;3.35;1.70;;;;;;;9.75;85.56;100990.19;5068868;28;20663;-73
2022/01/03 03:07:22;;;;;;;1.88;0.60;;;;;;;9.77;85.30;100997.94;5086981;28;20084;-71
2022/01/03 03:09:51;;;;;;;10.15;1.40;;;;;;;9.77;85.12;100993.56;5079322;28;20043;-72
2022/01/03 03:12:19;;;;;;;10.50;1.52;;;;;;;9.62;85.45;100994.66;5088954;28;20071;-72
2022/01/03 03:14:46;;;;;;;8.32;1.33;;;;;;;9.70;85.41;100994.94;5065344;28;20211;-71
2022/01/03 03:17:12;;;;;;;5.10;0.80;;;;;;;9.74;84.84;100998.19;5068795;28;20040;-70
2022/01/03 03:19:56;;;;;;;4.80;0.98;;;;;;;9.74;85.38;100993.78;5067623;28;20050;-71
2022/01/03 03:22:23;;;;;;;10.02;0.60;;;;;;;9.66;86.20;101003.16;5075431;28;20050;-71
2022/01/03 03:25:00;;;;;;;10.55;1.30;;;;;;;9.64;85.46;101012.91;5046983;28;20044;-72
2022/01/03 03:27:30;;;;;;;13.88;2.05;;;;;;;9.68;86.21;101009.97;5046575;28;20063;-72
2022/01/03 03:29:57;;;;;;;9.60;1.15;;;;;;;9.72;85.31;101007.94;5042631;28;20134;-72
2022/01/03 03:32:25;;;;;;;8.43;1.10;;;;;;;9.74;85.83;101004.25;5064121;28;20060;-70
2022/01/03 03:34:52;;;;;;;3.90;1.30;;;;;;;9.71;85.17;100996.63;5065786;28;20044;-73
2022/01/03 03:37:19;;;;;;;9.30;1.35;;;;;;;9.67;85.65;101007.44;5066434;28;20063;-72
2022/01/03 03:39:46;;;;;;;7.95;0.82;;;;;;;9.67;85.94;100999.59;5067785;28;20568;-72
2022/01/03 03:42:15;;;;;;;11.05;1.10;;;;;;;9.60;86.21;101007.03;5048475;28;20104;-72
2022/01/03 03:44:42;;;;;;;10.70;1.38;;;;;;;9.61;86.41;101008.72;5067725;28;20050;-71
2022/01/03 03:47:09;;;;;;;10.35;0.77;;;;;;;9.59;86.47;101007.97;5054903;28;20048;-71
2022/01/03 03:49:36;;;;;;;6.53;1.50;;;;;;;9.54;86.91;101005.81;5066592;28;20097;-73
2022/01/03 03:52:03;;;;;;;4.47;1.63;;;;;;;9.59;85.77;100992.25;5067977;28;20045;-74
2022/01/03 03:54:30;;;;;;;11.65;1.02;;;;;;;9.63;86.26;100988.47;5066063;28;20052;-72
2022/01/03 03:57:00;;;;;;;3.65;0.93;;;;;;;9.73;85.97;101002.59;5068045;28;20052;-73
2022/01/03 03:59:28;;;;;;;26.73;1.98;;;;;;;9.68;86.02;100996.00;5068293;28;20106;-73
2022/01/03 04:01:55;;;;;;;6.38;0.52;;;;;;;9.62;86.47;100983.31;5072980;28;20047;-73
2022/01/03 04:04:23;;;;;;;12.48;2.05;;;;;;;9.65;86.40;100994.41;5065323;28;20056;-73
2022/01/03 04:06:50;;;;;;;8.68;1.60;;;;;;;9.78;85.27;100997.88;5070687;28;20109;-72
2022/01/03 04:09:17;;;;;;;4.63;0.93;;;;;;;9.80;85.74;100993.34;5069563;28;20126;-73
2022/01/03 04:11:43;;;;;;;18.42;2.05;;;;;;;9.88;85.43;101000.66;5070562;28;20123;-72
2022/01/03 04:14:10;;;;;;;11.80;1.48;;;;;;;9.88;85.60;101001.50;5053570;28;20047;-72
2022/01/03 04:16:39;;;;;;;7.72;1.63;;;;;;;9.99;84.53;100998.13;5077591;28;20047;-74
2022/01/03 04:19:05;;;;;;;3.47;0.77;;;;;;;10.07;85.08;101007.13;5077611;28;20058;-73
2022/01/03 04:21:32;;;;;;;2.90;1.10;;;;;;;10.04;84.31;100985.50;5068455;28;20036;-72
2022/01/03 04:23:59;;;;;;;4.60;0.88;;;;;;;10.07;85.01;100999.25;5072971;28;20052;-74
2022/01/03 04:26:26;;;;;;;9.40;0.90;;;;;;;10.01;85.44;100986.56;5067300;28;20040;-72
2022/01/03 04:28:53;;;;;;;5.47;1.23;;;;;;;9.96;85.49;100987.81;5065802;28;20095;-72
2022/01/03 04:31:19;;;;;;;13.00;1.50;;;;;;;9.81;85.26;100981.88;5064422;28;20127;-72
2022/01/03 04:33:47;;;;;;;2.65;1.08;;;;;;;9.69;85.52;100980.16;5051545;28;20044;-71
2022/01/03 04:36:14;;;;;;;5.18;0.98;;;;;;;9.69;86.51;100977.53;5064379;28;20109;-73
2022/01/03 04:38:41;;;;;;;3.00;0.52;;;;;;;9.66;86.02;100979.53;5071230;28;20071;-73
2022/01/03 04:41:08;;;;;;;11.60;1.20;;;;;;;9.66;86.94;100975.13;5062890;28;20801;-71
2022/01/03 04:43:35;;;;;;;8.98;1.45;;;;;;;9.74;86.39;100972.78;5070001;28;20101;-72
2022/01/03 04:46:02;;;;;;;7.45;0.70;;;;;;;9.92;85.32;100970.63;5048443;28;20131;-73
2022/01/03 04:48:30;;;;;;;16.67;2.05;;;;;;;9.98;84.97;100976.28;5072644;28;20041;-72
2022/01/03 04:50:58;;;;;;;17.42;2.78;;;;;;;10.07;83.91;100978.25;5069518;28;20137;-71
2022/01/03 04:53:27;;;;;;;3.00;0.63;;;;;;;10.07;85.10;100978.25;5071955;28;20056;-71
2022/01/03 04:55:54;;;;;;;4.57;0.70;;;;;;;10.12;84.00;100973.50;5068899;28;20044;-72
2022/01/03 04:58:21;;;;;;;9.18;1.50;;;;;;;10.22;83.17;100971.84;5071347;28;20048;-71
2022/01/03 05:00:48;;;;;;;6.82;1.73;;;;;;;10.19;84.07;100972.09;5071965;28;20067;-73
2022/01/03 05:03:15;;;;;;;7.35;0.98;;;;;;;10.12;84.88;100970.88;5075591;28;20075;-71
2022/01/03 05:05:42;;;;;;;2.00;0.30;;;;;;;10.13;83.15;100974.34;5082074;28;20076;-72
2022/01/03 05:08:11;;;;;;;16.90;1.63;;;;;;;10.05;84.11;100974.91;5063298;28;20199;-72
2022/01/03 05:10:37;;;;;;;11.65;1.77;;;;;;;10.15;84.12;100967.19;5090514;28;20043;-71
2022/01/03 05:13:04;;;;;;;14.25;1.98;;;;;;;10.18;84.68;100972.22;5056339;28;20048;-73
2022/01/03 05:15:31;;;;;;;5.40;1.27;;;;;;;10.23;83.65;100970.91;5071277;28;20052;-71
2022/01/03 05:17:58;;;;;;;29.25;2.95;;;;;;;10.24;83.12;100972.59;5067795;28;20124;-73
2022/01/03 05:20:24;;;;;;;10.90;1.33;;;;;;;10.21;83.02;100964.09;5052635;28;20058;-72
2022/01/03 05:22:51;;;;;;;3.20;1.52;;;;;;;10.26;83.89;100970.69;5069755;28;20046;-74
2022/01/03 05:25:19;;;;;;;9.57;1.33;;;;;;;10.21;84.31;100961.47;5072708;28;20052;-72
2022/01/03 05:27:45;;;;;;;7.55;1.10;;;;;;;10.21;84.38;100967.59;5069875;28;20036;-72
2022/01/03 05:30:12;;;;;;;6.07;1.38;;;;;;;10.16;84.95;100961.81;5065281;28;20086;-73
2022/01/03 05:32:40;;;;;;;11.25;1.65;;;;;;;10.19;83.68;100968.63;5047639;28;20253;-73
2022/01/03 05:35:07;;;;;;;11.77;1.58;;;;;;;10.08;83.87;100951.03;5066313;28;20052;-72
2022/01/03 05:37:34;;;;;;;3.88;0.95;;;;;;;10.09;84.43;100959.78;5070099;28;20059;-72
2022/01/03 05:40:00;;;;;;;8.10;2.55;;;;;;;10.09;84.21;100957.97;5068099;28;20055;-73
2022/01/03 05:42:30;;;;;;;6.85;1.05;;;;;;;10.06;84.86;100957.38;5067715;28;20040;-73
2022/01/03 05:44:57;;;;;;;4.82;2.00;;;;;;;9.95;85.46;100955.50;5049867;28;20056;-73
2022/01/03 05:47:23;;;;;;;6.65;0.85;;;;;;;9.95;85.08;100955.50;5071280;28;20114;-72
2022/01/03 05:49:52;;;;;;;8.27;1.50;;;;;;;9.93;85.63;100952.16;5071625;28;20051;-71
2022/01/03 05:52:19;;;;;;;16.73;1.77;;;;;;;10.03;84.55;100945.31;5075852;28;20274;-73
2022/01/03 05:54:46;;;;;;;16.85;2.00;;;;;;;10.05;84.55;100940.78;5067878;28;20048;-71
2022/01/03 05:57:12;;;;;;;4.35;1.27;;;;;;;9.93;85.04;100928.53;5071155;28;20619;-72
2022/01/03 05:59:40;;;;;;;5.80;1.52;;;;;;;9.97;84.78;100950.94;5070684;28;20064;-72
2022/01/03 06:02:07;;;;;;;8.73;1.55;;;;;;;10.06;85.50;100936.38;5067598;28;20120;-73
2022/01/03 06:04:52;;;;;;;7.25;1.10;;;;;;;10.00;84.95;100929.78;5068607;28;20083;-71
2022/01/03 06:07:19;;;;;;;5.53;1.15;;;;;;;10.08;85.28;100934.47;5067241;28;20060;-70
2022/01/03 06:09:46;;;;;;;10.50;1.10;;;;;;;10.12;84.41;100928.88;5052423;28;20055;-71
2022/01/03 06:12:13;;;;;;;7.25;0.30;;;;;;;10.15;84.10;100941.75;5068046;28;20055;-70
2022/01/03 06:14:41;;;;;;;8.93;2.47;;;;;;;10.00;85.39;100932.41;5078281;28;20080;-74
2022/01/03 06:17:08;;;;;;;6.35;1.08;;;;;;;9.91;85.89;100940.09;5072848;28;20043;-71
2022/01/03 06:19:34;;;;;;;10.98;0.60;;;;;;;10.02;85.59;100930.50;5076580;28;20044;-71
2022/01/03 06:22:03;;;;;;;5.95;1.73;;;;;;;10.06;85.37;100931.13;5071287;28;20047;-71
2022/01/03 06:24:30;;;;;;;7.35;1.48;;;;;;;10.14;84.54;100934.84;5073539;28;20055;-73
2022/01/03 06:26:57;;;;;;;7.65;1.08;;;;;;;10.25;84.34;100929.63;5074968;28;20047;-71
2022/01/03 06:29:23;;;;;;;9.63;1.73;;;;;;;10.28;84.06;100929.41;5071295;28;20160;-72
2022/01/03 06:31:51;;;;;;;5.70;0.65;;;;;;;10.22;84.10;100921.97;5064813;28;20043;-72
2022/01/03 06:34:18;;;;;;;10.50;1.20;;;;;;;10.19;84.56;100922.22;5069959;28;20043;-73
2022/01/03 06:36:45;;;;;;;14.05;1.13;;;;;;;10.26;84.37;100918.19;5066577;28;20041;-71
2022/01/03 06:39:12;;;;;;;3.17;0.98;;;;;;;10.36;83.46;100921.81;5066857;28;20040;-72
2022/01/03 06:41:39;;;;;;;9.68;0.93;;;;;;;10.28;84.57;100920.69;5068154;28;20105;-73
2022/01/03 06:44:06;;;;;;;10.15;1.50;;;;;;;10.17;84.82;100924.13;5070796;28;20105;-71
2022/01/03 06:46:33;;;;;;;8.63;1.52;;;;;;;10.04;85.11;100923.38;5076907;28;20044;-73
2022/01/03 06:49:02;;;;;;;12.57;1.67;;;;;;;9.91;86.50;100925.16;5074643;28;20064;-72
2022/01/03 06:51:34;;;;;;;8.10;1.73;;;;;;;9.77;86.58;100922.72;5073807;28;20069;-70
2022/01/03 06:54:02;;;;;;;10.15;1.67;;;;;;;9.73;86.58;100923.88;5082814;28;20106;-70
2022/01/03 06:56:28;;;;;;;6.18;1.10;;;;;;;9.78;86.98;100921.78;5074279;28;20040;-71
2022/01/03 06:58:55;;;;;;;2.15;0.70;;;;;;;9.84;86.46;100925.75;5076429;28;20044;-71
2022/01/03 07:01:21;;;;;;;15.02;1.52;;;;;;;9.71;88.30;100907.44;5074563;28;20136;-70
2022/01/03 07:03:48;;;;;;;8.15;1.35;;;;;;;9.71;87.87;100915.31;5072779;28;20120;-72
2022/01/03 07:06:16;;;;;;;7.95;1.27;;;;;;;9.62;88.62;100918.59;5079604;28;20043;-70
2022/01/03 07:08:44;;;;;;;11.60;1.33;;;;;;;9.60;89.21;100920.50;5082525;28;20089;-71
2022/01/03 07:11:11;;;;;;;1.92;0.47;;;;;;;9.66;88.96;100919.22;5080501;28;20136;-72
2022/01/03 07:13:44;;;;;;;6.90;1.75;;;;;;;9.67;90.62;100908.59;5071335;28;20051;-73
2022/01/03 07:18:59;;;;;;;9.90;0.98;;;;;;;9.49;91.49;100903.00;5075607;28;20090;-71
2022/01/03 07:21:33;;;;;;;2.15;0.45;;;;;;;9.42;93.21;100907.00;5066246;28;20046;-71
2022/01/03 07:23:59;;;;;;;4.68;0.57;;;;;;;9.37;92.24;100898.66;5073845;28;20044;-73
2022/01/03 07:26:27;;;;;;;12.50;1.02;;;;;;;9.39;92.97;100894.16;5073214;28;20040;-70
2022/01/03 07:28:54;;;;;;;3.83;1.05;;;;;;;9.40;91.86;100903.69;5073599;28;20036;-71
2022/01/03 07:31:20;;;;;;;1.45;0.70;;;;;;;9.40;91.92;100903.69;5075117;28;20048;-73
2022/01/03 07:33:47;;;;;;;12.13;1.45;;;;;;;9.43;91.47;100900.81;5070441;28;20036;-72
2022/01/03 07:36:14;;;;;;;8.27;0.68;;;;;;;9.33;92.19;100897.19;5056781;28;20367;-71
2022/01/03 07:38:46;;;;;;;10.82;2.25;;;;;;;9.26;92.19;100901.19;5070797;28;20051;-73
2022/01/03 07:41:14;;;;;;;9.23;0.70;;;;;;;9.21;93.45;100900.69;5052130;28;20483;-72
2022/01/03 07:43:42;;;;;;;9.95;1.38;;;;;;;9.36;91.53;100902.22;5056108;28;20040;-71
2022/01/03 07:46:08;;;;;;;18.35;1.88;;;;;;;9.42;92.98;100904.38;5070202;28;20048;-72
2022/01/03 07:48:35;;;;;;;20.67;1.85;;;;;;;9.39;93.40;100902.00;5068905;28;20055;-73
2022/01/03 07:51:02;;;;;;;6.53;1.52;;;;;;;9.41;92.58;100897.47;5073999;28;20071;-71
2022/01/03 07:53:30;;;;;;;3.13;0.43;;;;;;;9.40;92.21;100901.06;5064471;28;20049;-72
2022/01/03 07:55:59;;;;;;;4.90;0.85;;;;;;;9.39;92.94;100904.63;5066289;28;20044;-72
2022/01/03 07:58:26;;;;;;;16.60;1.30;;;;;;;9.33;92.72;100902.44;5069284;28;20036;-69
2022/01/03 08:00:52;;;;;;;10.63;1.65;;;;;;;9.23;93.06;100904.06;5071258;28;20044;-71
2022/01/03 08:03:19;;;;;;;2.70;0.65;;;;;;;9.26;93.13;100901.19;5065680;28;20131;-75
2022/01/03 08:05:47;;;;;;;6.72;1.83;;;;;;;9.25;92.57;100912.63;5069522;28;20052;-69
2022/01/03 08:08:13;;;;;;;10.98;1.60;;;;;;;9.31;91.74;100915.66;5075513;28;20162;-70
2022/01/03 08:10:41;;;;;;;3.72;1.05;;;;;;;9.30;92.73;100918.38;5056792;28;20051;-71
2022/01/03 08:13:09;;;;;;;6.72;0.70;;;;;;;9.44;91.12;100920.84;5072401;28;20044;-70
2022/01/03 08:16:23;;;;;;;0.70;0.45;;;;;;;9.48;91.29;100917.09;5116907;22;20060;-71
2022/01/03 08:18:53;;;;;;;8.40;1.00;;;;;;;9.54;92.52;100932.38;5042790;28;20041;-70
2022/01/03 08:21:20;;;;;;;2.92;1.02;;;;;;;9.58;92.40;100940.72;5036118;28;20053;-71
2022/01/03 08:23:46;;;;;;;6.10;1.20;;;;;;;9.58;91.31;100940.72;5053518;28;20117;-71
2022/01/03 08:26:13;;;;;;;4.95;1.75;;;;;;;9.58;91.62;100935.50;5057222;28;20036;-72
2022/01/03 08:28:41;;;;;;;10.32;1.85;;;;;;;9.56;91.93;100920.00;5062843;28;20090;-71
2022/01/03 08:31:08;;;;;;;13.95;1.95;;;;;;;9.61;91.96;100918.69;5043736;28;20136;-71
2022/01/03 08:33:34;;;;;;;13.50;2.17;;;;;;;9.59;91.85;100910.94;5041620;28;20049;-71
2022/01/03 08:36:01;;;;;;;5.55;0.93;;;;;;;9.58;90.88;100919.75;5061097;28;20040;-71
2022/01/03 08:38:27;;;;;;;5.95;1.58;;;;;;;9.61;91.21;100929.19;5069175;28;20045;-72
2022/01/03 08:40:54;;;;;;;2.67;0.50;;;;;;;9.76;90.79;100936.78;5076038;28;20036;-73
2022/01/03 08:43:20;;;;;;;13.15;2.08;;;;;;;9.82;90.60;100928.47;5080306;28;20242;-72
2022/01/03 08:45:48;;;;;;;9.15;2.47;;;;;;;9.90;90.13;100925.28;5078893;28;20504;-72
2022/01/03 08:48:18;;;;;;;10.10;1.17;;;;;;;9.90;89.75;100922.66;5062727;28;20078;-72
2022/01/03 08:50:44;;;;;;;3.60;0.88;;;;;;;9.84;90.22;100916.06;5059666;28;20048;-72
2022/01/03 08:53:11;;;;;;;9.65;1.48;;;;;;;9.92;88.38;100915.53;5060241;28;20048;-73
2022/01/03 08:55:38;;;;;;;3.72;0.93;;;;;;;10.00;88.31;100910.59;5045301;28;20049;-73
2022/01/03 08:58:05;;;;;;;9.32;1.20;;;;;;;10.08;88.84;100913.47;5060175;28;20051;-71
2022/01/03 09:00:31;;;;;;;8.15;1.73;;;;;;;10.14;88.04;100910.38;5059301;28;20603;-71
2022/01/03 09:02:59;;;;;;;11.68;2.92;;;;;;;10.20;88.47;100913.41;5038706;28;20040;-72
2022/01/03 09:05:26;;;;;;;0.73;0.38;;;;;;;10.38;86.51;100903.28;5059894;28;20049;-72
2022/01/03 09:07:53;;;;;;;3.60;1.23;;;;;;;10.65;85.16;100905.50;5057101;28;20044;-70
2022/01/03 09:10:19;;;;;;;4.97;1.45;;;;;;;10.54;86.57;100907.28;5055803;28;20352;-71
2022/01/03 09:12:45;;;;;;;10.85;2.20;;;;;;;10.48;86.40;100910.34;5061793;28;20762;-70
2022/01/03 09:15:13;;;;;;;9.57;0.85;;;;;;;10.54;86.24;100909.91;5057691;28;20099;-71
2022/01/03 09:17:40;;;;;;;12.38;1.75;;;;;;;10.62;85.42;100904.91;5033704;28;20504;-72
2022/01/03 09:20:09;;;;;;;4.88;1.05;;;;;;;10.71;85.00;100915.53;5039593;28;20049;-69
2022/01/03 09:22:41;;;;;;;9.48;2.05;;;;;;;10.74;85.19;100909.19;5063150;28;20055;-68
2022/01/03 09:30:39;;;;;;;2.65;1.38;;;;;;;10.80;84.52;100906.94;5058098;28;20037;-69
2022/01/03 09:33:05;;;;;;;12.48;2.47;;;;;;;10.92;84.29;100902.53;5054215;28;20090;-68
2022/01/03 09:35:33;;;;;;;16.52;1.58;;;;;;;11.11;82.93;100903.59;5055396;28;20044;-69
2022/01/03 09:38:00;;;;;;;4.45;1.48;;;;;;;11.24;82.07;100897.25;5055592;28;20127;-70
2022/01/03 09:40:26;;;;;;;6.00;1.30;;;;;;;11.22;81.38;100882.56;5061764;28;20036;-69
2022/01/03 09:42:58;;;;;;;9.65;1.50;;;;;;;11.15;82.76;100888.41;5065640;28;20128;-66
2022/01/03 09:45:27;;;;;;;11.13;1.88;;;;;;;11.03;82.29;100894.66;5041652;28;20056;-69
2022/01/03 09:47:55;;;;;;;5.25;1.20;;;;;;;10.91;83.35;100892.97;5057676;28;20049;-69
2022/01/03 09:50:22;;;;;;;8.88;1.92;;;;;;;10.83;82.80;100893.59;5060782;28;20044;-67
2022/01/03 09:52:51;;;;;;;4.85;1.15;;;;;;;10.84;83.42;100879.47;5058630;28;20133;-70
2022/01/03 09:55:19;;;;;;;4.75;1.10;;;;;;;10.86;83.94;100879.34;5057840;28;20054;-69
2022/01/03 09:57:46;;;;;;;8.70;1.20;;;;;;;10.90;82.24;100873.75;5058245;28;20151;-68
2022/01/03 10:00:14;;;;;;;2.50;1.30;;;;;;;11.02;82.35;100864.88;5060216;28;20478;-70
2022/01/03 10:02:41;;;;;;;4.00;1.17;;;;;;;11.12;81.75;100876.34;5057650;28;20044;-68
2022/01/03 10:05:08;;;;;;;7.70;1.17;;;;;;;11.20;81.61;100874.75;5059991;28;20028;-73
2022/01/03 10:07:35;;;;;;;6.22;1.83;;;;;;;11.28;80.25;100872.34;5058893;28;20051;-73
2022/01/03 10:10:03;;;;;;;19.70;2.22;;;;;;;11.49;78.59;100857.50;5061150;28;20036;-71
2022/01/03 10:12:30;;;;;;;4.05;0.98;;;;;;;11.89;78.50;100865.66;5060024;28;20132;-71
2022/01/03 10:14:58;;;;;;;6.60;1.40;;;;;;;12.18;76.06;100863.09;5056668;28;20055;-72
2022/01/03 10:17:25;;;;;;;10.63;2.05;;;;;;;11.87;76.92;100851.78;5058327;28;20127;-74
2022/01/03 10:19:53;;;;;;;2.95;1.33;;;;;;;11.58;77.87;100862.06;5060109;28;20047;-71
2022/01/03 10:22:21;;;;;;;15.27;1.88;;;;;;;11.47;79.16;100863.84;5057853;28;20376;-71
2022/01/03 10:24:47;;;;;;;10.00;1.92;;;;;;;11.41;79.38;100865.19;5060134;28;20094;-74
2022/01/03 10:27:15;;;;;;;8.98;1.40;;;;;;;11.63;79.40;100856.41;5060840;28;20048;-72
2022/01/03 10:29:42;;;;;;;12.25;2.17;;;;;;;11.94;78.20;100845.88;5044210;28;20106;-71
2022/01/03 10:32:11;;;;;;;10.30;1.30;;;;;;;12.14;76.97;100850.31;5060114;28;20051;-71
2022/01/03 10:34:38;;;;;;;4.60;1.08;;;;;;;11.99;77.14;100838.44;5058932;28;20135;-72
2022/01/03 10:37:11;;;;;;;7.20;1.35;;;;;;;11.97;77.46;100829.00;5043167;28;20044;-72
2022/01/03 10:39:38;;;;;;;9.10;1.42;;;;;;;12.03;76.98;100842.47;5058370;28;20127;-71
2022/01/03 10:42:16;;;;;;;7.05;1.67;;;;;;;12.19;75.53;100841.06;5061425;28;20047;-72
2022/01/03 10:44:44;;;;;;;7.47;1.10;;;;;;;12.31;75.91;100841.81;5056109;28;20068;-73
2022/01/03 10:47:13;;;;;;;4.10;1.27;;;;;;;12.11;76.33;100838.25;5058463;28;20052;-71
2022/01/03 10:49:42;;;;;;;4.88;1.00;;;;;;;12.03;76.46;100831.94;5058687;28;20040;-71
2022/01/03 10:52:18;;;;;;;9.65;1.58;;;;;;;11.97;76.91;100831.63;5055135;28;20051;-71
2022/01/03 10:55:10;;;;;;;8.68;1.05;;;;;;;12.07;76.22;100855.25;5054818;28;20041;-71
2022/01/03 10:57:49;;;;;;;10.73;1.38;;;;;;;12.62;74.31;100840.88;5059429;28;20036;-70
2022/01/03 11:00:17;;;;;;;5.72;1.45;;;;;;;12.54;74.75;100838.91;5058869;28;20052;-73
2022/01/03 11:03:16;;;;;;;8.00;1.30;;;;;;;12.46;75.54;100846.66;5056200;28;20060;-71
2022/01/03 11:05:47;;;;;;;8.73;2.80;;;;;;;12.28;75.59;100848.19;5056598;28;20055;-72
2022/01/03 11:10:59;;;;;;;12.88;1.45;;;;;;;12.20;76.72;100826.94;5060535;28;20040;-69
2022/01/03 11:13:27;;;;;;;10.25;1.10;;;;;;;12.31;74.77;100828.66;5059847;28;20055;-72
2022/01/03 11:15:55;;;;;;;3.50;0.80;;;;;;;12.54;74.99;100816.97;5064473;28;20057;-71
2022/01/03 11:18:24;;;;;;;5.25;1.15;;;;;;;12.70;73.88;100804.16;5069049;28;20036;-73
2022/01/03 11:21:03;;;;;;;2.95;1.25;;;;;;;12.96;73.54;100814.97;5080674;28;20108;-71
2022/01/03 11:23:30;;;;;;;4.10;0.60;;;;;;;12.81;73.14;100805.72;5075172;28;20094;-71
2022/01/03 11:25:58;;;;;;;11.98;1.40;;;;;;;12.98;73.97;100799.84;5046107;28;20052;-72
2022/01/03 11:28:29;;;;;;;2.67;0.80;;;;;;;12.88;72.88;100791.06;5058502;28;20040;-72
2022/01/03 11:30:56;;;;;;;17.10;1.10;;;;;;;12.75;73.15;100784.34;5063596;28;20044;-72
2022/01/03 11:33:23;;;;;;;11.35;1.40;;;;;;;12.63;75.30;100795.13;5058252;28;20072;-71
2022/01/03 11:35:52;;;;;;;5.72;1.13;;;;;;;12.50;74.87;100792.69;5059511;28;20658;-70
2022/01/03 11:38:20;;;;;;;13.43;2.05;;;;;;;12.41;75.47;100790.03;5058904;28;20101;-71
2022/01/03 11:40:47;;;;;;;7.43;1.13;;;;;;;12.39;75.66;100779.59;5058093;28;20051;-71
2022/01/03 11:43:14;;;;;;;5.15;1.05;;;;;;;12.41;75.56;100788.22;5056946;28;20052;-70